»·PEaware :: N122SQ KMHV-KSBP

N122SQ :: KMHV-KSBP

FLIGHT INFORMATION

Flight Status: Arrived
Operator: Privately registered:
United States
More flights under this callsign
Pilot: Gabor H. (24209)
Aircraft: CIRRUS SR-22 TURBO
(S22T)
More flights by this aircraft type
Origin: KMHV Mojave
United States
Destination: KSBP San Luis Co Regl
United States
More flights between these airports :: More routes between these airports
Route:
File this flight plan on PilotEdge
Remarks:
Altitude:
(Current/Filed)
8,500ft
Speed:
(Current/Filed)
0kts
Departed: 26-Apr-23 05:25 PM
Arrived: 26-Apr-23 06:08 PM
Distance/Time
Traveled:
123nm/0:42
Distance/Time
To Go:
Arrived

Flight Plot

Page will automatically refresh every two minutes.

Flight plan parsing failed; only flown route is shown


Map Options




Map Legend


Flown Route
Filed Route
Departure Airport
Arrival Airport
Navaid (VOR, NDB)
Fix

Horizontal Profiles

Position Reports

Time Latitude Longitude Heading Altitude Ground
Speed
26-Apr-23 17:19 35.057137 -118.157506 273 2764ft 0kts
26-Apr-23 17:20 35.057137 -118.157507 273 2764ft 0kts
26-Apr-23 17:21 35.057365 -118.157651 18 2765ft 8kts
26-Apr-23 17:22 35.057600 -118.150753 89 2751ft 18kts
26-Apr-23 17:23 35.058686 -118.150094 322 2753ft 11kts
26-Apr-23 17:24 35.059342 -118.171278 269 2971ft 124kts
26-Apr-23 17:25 35.060369 -118.215005 273 4141ft 130kts
26-Apr-23 17:26 35.063310 -118.259226 273 5352ft 131kts
26-Apr-23 17:27 35.066515 -118.303394 273 6554ft 131kts
26-Apr-23 17:28 35.069486 -118.347818 273 7723ft 134kts
26-Apr-23 17:29 35.073204 -118.396819 275 8434ft 157kts
26-Apr-23 17:30 35.076698 -118.453881 274 8503ft 175kts
26-Apr-23 17:31 35.080055 -118.512704 275 8581ft 172kts
26-Apr-23 17:32 35.083397 -118.571651 274 8582ft 175kts
26-Apr-23 17:33 35.086722 -118.631155 274 8582ft 176kts
26-Apr-23 17:34 35.090042 -118.690976 274 8582ft 176kts
26-Apr-23 17:35 35.093319 -118.750509 274 8607ft 174kts
26-Apr-23 17:36 35.096587 -118.809778 274 8606ft 176kts
26-Apr-23 17:37 35.099828 -118.869522 274 8574ft 176kts
26-Apr-23 17:38 35.103019 -118.929354 274 8568ft 175kts
26-Apr-23 17:39 35.106194 -118.989206 274 8561ft 175kts
26-Apr-23 17:40 35.109339 -119.049072 274 8555ft 174kts
26-Apr-23 17:41 35.112466 -119.109317 274 8555ft 174kts
26-Apr-23 17:42 35.115539 -119.168849 274 8555ft 174kts
26-Apr-23 17:43 35.118668 -119.230110 274 8554ft 174kts
26-Apr-23 17:44 35.121798 -119.292175 274 8555ft 173kts
26-Apr-23 17:45 35.124791 -119.352002 274 8555ft 173kts
26-Apr-23 17:46 35.127834 -119.413341 274 8555ft 173kts
26-Apr-23 17:47 35.130905 -119.476020 274 8555ft 174kts
26-Apr-23 17:48 35.133897 -119.537750 274 8554ft 173kts
26-Apr-23 17:49 35.136911 -119.600569 274 8555ft 174kts
26-Apr-23 17:50 35.139804 -119.661642 274 8549ft 174kts
26-Apr-23 17:51 35.142583 -119.720706 274 8536ft 173kts
26-Apr-23 17:52 35.145320 -119.779603 274 8555ft 173kts
26-Apr-23 17:53 35.148092 -119.839829 274 8555ft 174kts
26-Apr-23 17:54 35.150871 -119.900893 274 8555ft 174kts
26-Apr-23 17:55 35.153630 -119.962267 274 8554ft 174kts
26-Apr-23 17:56 35.156326 -120.022831 274 8555ft 174kts
26-Apr-23 17:57 35.158914 -120.082419 274 8558ft 174kts
26-Apr-23 17:58 35.161532 -120.142664 274 8366ft 181kts
26-Apr-23 17:59 35.164328 -120.207201 274 7365ft 193kts
26-Apr-23 18:00 35.167090 -120.272459 274 6336ft 191kts
26-Apr-23 18:01 35.169774 -120.336677 274 5331ft 188kts
26-Apr-23 18:02 35.172424 -120.400624 274 4329ft 184kts
26-Apr-23 18:03 35.174940 -120.462168 275 3365ft 180kts
26-Apr-23 18:04 35.177397 -120.522762 274 2416ft 177kts
26-Apr-23 18:05 35.199179 -120.573861 304 1483ft 170kts
26-Apr-23 18:06 35.225053 -120.619325 305 578ft 134kts
26-Apr-23 18:07 35.237767 -120.641982 288 192ft 18kts
26-Apr-23 18:08 35.237418 -120.643806 270 187ft 16kts
26-Apr-23 18:09 35.238364 -120.648202 118 168ft 0kts

Navigation Log

Ident Type
Flight plan parsing failed, navigation log unavailable